Terminal Aerodrome Forecast
Issued by NWS

Home | Current Version | Previous Version | Graphics & Text | Print | Product List | Glossary On
Versions: 1 2 3 4 5 6 7 8 9 10 11 12 13 14 15 16 17 18 19 20 21
000
FTUS43 KMPX 190321 AAB
TAFRWF
TAF AMD
KRWF 190321Z 1903/1924 13008KT 2SM BR OVC003
     FM191600 15014G20KT P6SM OVC015
     FM191900 15020G30KT P6SM BKN040=

USA.gov is the U.S. government's official web portal to all federal, state and local government web resources and services.